sensor_id;sensor_type;location;lat;lon;timestamp;P1;durP1;ratioP1;P2;durP2;ratioP2
4986;SDS011;12674;51.500;7.552;2024-02-28T00:00:00;39.70;;;21.93;;
4986;SDS011;12674;51.500;7.552;2024-02-28T00:02:07;40.90;;;21.00;;
4986;SDS011;12674;51.500;7.552;2024-02-28T00:04:10;37.23;;;19.30;;
4986;SDS011;12674;51.500;7.552;2024-02-28T00:06:12;32.80;;;18.13;;
4986;SDS011;12674;51.500;7.552;2024-02-28T00:08:15;35.80;;;19.43;;
4986;SDS011;12674;51.500;7.552;2024-02-28T00:10:18;39.00;;;20.60;;
4986;SDS011;12674;51.500;7.552;2024-02-28T00:12:21;40.83;;;20.90;;
4986;SDS011;12674;51.500;7.552;2024-02-28T00:14:26;37.00;;;20.00;;
4986;SDS011;12674;51.500;7.552;2024-02-28T00:16:29;42.57;;;21.20;;
4986;SDS011;12674;51.500;7.552;2024-02-28T00:18:33;39.57;;;21.17;;
4986;SDS011;12674;51.500;7.552;2024-02-28T00:20:36;41.60;;;21.80;;
4986;SDS011;12674;51.500;7.552;2024-02-28T00:22:39;39.63;;;22.00;;
4986;SDS011;12674;51.500;7.552;2024-02-28T00:24:43;39.03;;;21.10;;
4986;SDS011;12674;51.500;7.552;2024-02-28T00:26:46;41.83;;;21.30;;
4986;SDS011;12674;51.500;7.552;2024-02-28T00:28:49;41.87;;;20.83;;
4986;SDS011;12674;51.500;7.552;2024-02-28T00:30:51;40.53;;;22.53;;
4986;SDS011;12674;51.500;7.552;2024-02-28T00:32:54;40.27;;;21.23;;
4986;SDS011;12674;51.500;7.552;2024-02-28T00:34:59;46.63;;;21.37;;
4986;SDS011;12674;51.500;7.552;2024-02-28T00:37:01;38.40;;;21.63;;
4986;SDS011;12674;51.500;7.552;2024-02-28T00:39:04;40.17;;;20.03;;
4986;SDS011;12674;51.500;7.552;2024-02-28T00:41:07;37.77;;;19.83;;
4986;SDS011;12674;51.500;7.552;2024-02-28T00:43:10;41.37;;;20.03;;
4986;SDS011;12674;51.500;7.552;2024-02-28T00:45:12;36.40;;;20.87;;
4986;SDS011;12674;51.500;7.552;2024-02-28T00:47:15;37.73;;;19.67;;
4986;SDS011;12674;51.500;7.552;2024-02-28T00:49:17;40.30;;;20.33;;
4986;SDS011;12674;51.500;7.552;2024-02-28T00:51:22;37.23;;;18.77;;
4986;SDS011;12674;51.500;7.552;2024-02-28T00:53:24;53.87;;;22.20;;
4986;SDS011;12674;51.500;7.552;2024-02-28T00:55:27;51.37;;;21.23;;
4986;SDS011;12674;51.500;7.552;2024-02-28T00:57:30;58.07;;;23.93;;
4986;SDS011;12674;51.500;7.552;2024-02-28T00:59:32;80.47;;;23.00;;
4986;SDS011;12674;51.500;7.552;2024-02-28T01:01:35;47.13;;;22.90;;
4986;SDS011;12674;51.500;7.552;2024-02-28T01:03:38;75.47;;;23.30;;
4986;SDS011;12674;51.500;7.552;2024-02-28T01:05:41;81.13;;;25.30;;
4986;SDS011;12674;51.500;7.552;2024-02-28T01:07:46;175.17;;;26.47;;
4986;SDS011;12674;51.500;7.552;2024-02-28T01:09:49;203.10;;;29.40;;
4986;SDS011;12674;51.500;7.552;2024-02-28T01:11:52;226.40;;;29.60;;
4986;SDS011;12674;51.500;7.552;2024-02-28T01:13:55;105.33;;;26.83;;
4986;SDS011;12674;51.500;7.552;2024-02-28T01:15:58;181.33;;;29.87;;
4986;SDS011;12674;51.500;7.552;2024-02-28T01:18:01;179.03;;;29.67;;
4986;SDS011;12674;51.500;7.552;2024-02-28T01:20:03;262.83;;;29.00;;
4986;SDS011;12674;51.500;7.552;2024-02-28T01:22:08;85.47;;;28.07;;
4986;SDS011;12674;51.500;7.552;2024-02-28T01:24:13;109.33;;;28.03;;
4986;SDS011;12674;51.500;7.552;2024-02-28T01:26:16;137.97;;;28.90;;
4986;SDS011;12674;51.500;7.552;2024-02-28T01:28:17;150.43;;;29.63;;
4986;SDS011;12674;51.500;7.552;2024-02-28T01:30:20;106.33;;;28.20;;
4986;SDS011;12674;51.500;7.552;2024-02-28T01:32:23;301.20;;;32.80;;
4986;SDS011;12674;51.500;7.552;2024-02-28T01:34:26;345.30;;;33.80;;
4986;SDS011;12674;51.500;7.552;2024-02-28T01:36:29;154.70;;;27.90;;
4986;SDS011;12674;51.500;7.552;2024-02-28T01:38:31;149.33;;;28.80;;
4986;SDS011;12674;51.500;7.552;2024-02-28T01:40:35;108.80;;;27.30;;
4986;SDS011;12674;51.500;7.552;2024-02-28T01:42:38;98.13;;;26.60;;
4986;SDS011;12674;51.500;7.552;2024-02-28T01:44:43;83.43;;;26.00;;
4986;SDS011;12674;51.500;7.552;2024-02-28T01:46:47;145.63;;;27.43;;
4986;SDS011;12674;51.500;7.552;2024-02-28T01:48:49;72.23;;;28.93;;
4986;SDS011;12674;51.500;7.552;2024-02-28T01:50:52;76.83;;;27.10;;
4986;SDS011;12674;51.500;7.552;2024-02-28T01:52:55;104.07;;;27.47;;
4986;SDS011;12674;51.500;7.552;2024-02-28T01:54:58;109.07;;;28.40;;
4986;SDS011;12674;51.500;7.552;2024-02-28T01:57:03;145.03;;;26.17;;
4986;SDS011;12674;51.500;7.552;2024-02-28T01:59:06;76.77;;;27.00;;
4986;SDS011;12674;51.500;7.552;2024-02-28T02:01:10;136.07;;;27.93;;
4986;SDS011;12674;51.500;7.552;2024-02-28T02:03:16;198.60;;;26.43;;
4986;SDS011;12674;51.500;7.552;2024-02-28T02:05:19;82.33;;;24.73;;
4986;SDS011;12674;51.500;7.552;2024-02-28T02:07:22;70.13;;;26.70;;
4986;SDS011;12674;51.500;7.552;2024-02-28T02:09:25;47.90;;;25.93;;
4986;SDS011;12674;51.500;7.552;2024-02-28T02:11:28;61.17;;;25.70;;
4986;SDS011;12674;51.500;7.552;2024-02-28T02:13:33;156.07;;;26.50;;
4986;SDS011;12674;51.500;7.552;2024-02-28T02:15:36;319.27;;;30.77;;
4986;SDS011;12674;51.500;7.552;2024-02-28T02:17:40;415.27;;;36.77;;
4986;SDS011;12674;51.500;7.552;2024-02-28T02:19:43;221.53;;;29.27;;
4986;SDS011;12674;51.500;7.552;2024-02-28T02:21:48;93.60;;;25.33;;
4986;SDS011;12674;51.500;7.552;2024-02-28T02:23:54;239.43;;;28.73;;
4986;SDS011;12674;51.500;7.552;2024-02-28T02:25:56;318.57;;;31.93;;
4986;SDS011;12674;51.500;7.552;2024-02-28T02:27:59;295.50;;;30.40;;
4986;SDS011;12674;51.500;7.552;2024-02-28T02:30:03;117.93;;;26.53;;
4986;SDS011;12674;51.500;7.552;2024-02-28T02:32:06;115.47;;;24.53;;
4986;SDS011;12674;51.500;7.552;2024-02-28T02:34:11;327.10;;;32.40;;
4986;SDS011;12674;51.500;7.552;2024-02-28T02:36:14;379.27;;;38.20;;
4986;SDS011;12674;51.500;7.552;2024-02-28T02:38:17;88.57;;;25.80;;
4986;SDS011;12674;51.500;7.552;2024-02-28T02:40:20;111.97;;;25.20;;
4986;SDS011;12674;51.500;7.552;2024-02-28T02:42:23;73.47;;;26.10;;
4986;SDS011;12674;51.500;7.552;2024-02-28T02:44:26;104.03;;;28.23;;
4986;SDS011;12674;51.500;7.552;2024-02-28T02:46:29;114.53;;;25.30;;
4986;SDS011;12674;51.500;7.552;2024-02-28T02:48:32;398.03;;;36.07;;
4986;SDS011;12674;51.500;7.552;2024-02-28T02:50:35;223.13;;;29.33;;
4986;SDS011;12674;51.500;7.552;2024-02-28T02:52:38;377.53;;;34.97;;
4986;SDS011;12674;51.500;7.552;2024-02-28T02:54:39;70.20;;;25.43;;
4986;SDS011;12674;51.500;7.552;2024-02-28T02:56:44;116.73;;;28.77;;
4986;SDS011;12674;51.500;7.552;2024-02-28T02:58:46;227.70;;;30.43;;
4986;SDS011;12674;51.500;7.552;2024-02-28T03:00:49;215.20;;;28.53;;
4986;SDS011;12674;51.500;7.552;2024-02-28T03:02:52;367.23;;;36.10;;
4986;SDS011;12674;51.500;7.552;2024-02-28T03:04:54;137.90;;;25.37;;
4986;SDS011;12674;51.500;7.552;2024-02-28T03:06:57;193.13;;;25.77;;
4986;SDS011;12674;51.500;7.552;2024-02-28T03:09:00;181.50;;;26.20;;
4986;SDS011;12674;51.500;7.552;2024-02-28T03:11:02;291.20;;;27.70;;
4986;SDS011;12674;51.500;7.552;2024-02-28T03:13:09;111.97;;;24.00;;
4986;SDS011;12674;51.500;7.552;2024-02-28T03:15:11;416.30;;;30.33;;
4986;SDS011;12674;51.500;7.552;2024-02-28T03:17:14;204.90;;;26.77;;
4986;SDS011;12674;51.500;7.552;2024-02-28T03:19:17;157.57;;;26.33;;
4986;SDS011;12674;51.500;7.552;2024-02-28T03:21:20;94.20;;;25.93;;
4986;SDS011;12674;51.500;7.552;2024-02-28T03:23:24;103.67;;;24.83;;
4986;SDS011;12674;51.500;7.552;2024-02-28T03:25:26;112.83;;;23.60;;
4986;SDS011;12674;51.500;7.552;2024-02-28T03:27:29;108.47;;;24.77;;
4986;SDS011;12674;51.500;7.552;2024-02-28T03:29:34;70.23;;;22.80;;
4986;SDS011;12674;51.500;7.552;2024-02-28T03:31:37;73.67;;;24.20;;
4986;SDS011;12674;51.500;7.552;2024-02-28T03:33:40;76.60;;;23.10;;
4986;SDS011;12674;51.500;7.552;2024-02-28T03:35:42;75.13;;;21.47;;
4986;SDS011;12674;51.500;7.552;2024-02-28T03:37:46;73.63;;;23.07;;
4986;SDS011;12674;51.500;7.552;2024-02-28T03:39:49;61.57;;;22.43;;
4986;SDS011;12674;51.500;7.552;2024-02-28T03:41:52;97.40;;;24.13;;
4986;SDS011;12674;51.500;7.552;2024-02-28T03:43:55;62.73;;;23.23;;
4986;SDS011;12674;51.500;7.552;2024-02-28T03:45:59;37.20;;;21.83;;
4986;SDS011;12674;51.500;7.552;2024-02-28T03:48:02;42.07;;;21.33;;
4986;SDS011;12674;51.500;7.552;2024-02-28T03:50:05;46.10;;;22.80;;
4986;SDS011;12674;51.500;7.552;2024-02-28T03:52:09;38.00;;;22.60;;
4986;SDS011;12674;51.500;7.552;2024-02-28T03:54:12;47.30;;;23.50;;
4986;SDS011;12674;51.500;7.552;2024-02-28T03:56:21;53.43;;;24.70;;
4986;SDS011;12674;51.500;7.552;2024-02-28T03:58:27;46.27;;;24.07;;
4986;SDS011;12674;51.500;7.552;2024-02-28T04:00:30;45.57;;;23.33;;
4986;SDS011;12674;51.500;7.552;2024-02-28T04:02:35;43.63;;;24.07;;
4986;SDS011;12674;51.500;7.552;2024-02-28T04:04:38;48.00;;;25.60;;
4986;SDS011;12674;51.500;7.552;2024-02-28T04:06:40;52.10;;;25.57;;
4986;SDS011;12674;51.500;7.552;2024-02-28T04:08:43;74.20;;;25.87;;
4986;SDS011;12674;51.500;7.552;2024-02-28T04:10:46;69.83;;;26.70;;
4986;SDS011;12674;51.500;7.552;2024-02-28T04:12:51;202.33;;;30.10;;
4986;SDS011;12674;51.500;7.552;2024-02-28T04:14:53;119.40;;;29.80;;
4986;SDS011;12674;51.500;7.552;2024-02-28T04:16:56;125.20;;;30.70;;
4986;SDS011;12674;51.500;7.552;2024-02-28T04:19:00;112.93;;;31.03;;
4986;SDS011;12674;51.500;7.552;2024-02-28T04:21:03;126.63;;;32.60;;
4986;SDS011;12674;51.500;7.552;2024-02-28T04:23:06;112.50;;;28.07;;
4986;SDS011;12674;51.500;7.552;2024-02-28T04:25:09;94.60;;;30.63;;
4986;SDS011;12674;51.500;7.552;2024-02-28T04:27:12;102.03;;;30.47;;
4986;SDS011;12674;51.500;7.552;2024-02-28T04:29:15;77.90;;;30.00;;
4986;SDS011;12674;51.500;7.552;2024-02-28T04:31:18;143.87;;;30.33;;
4986;SDS011;12674;51.500;7.552;2024-02-28T04:33:21;114.77;;;31.80;;
4986;SDS011;12674;51.500;7.552;2024-02-28T04:35:26;131.60;;;33.00;;
4986;SDS011;12674;51.500;7.552;2024-02-28T04:37:28;110.73;;;31.50;;
4986;SDS011;12674;51.500;7.552;2024-02-28T04:39:31;94.63;;;31.50;;
4986;SDS011;12674;51.500;7.552;2024-02-28T04:41:34;73.43;;;29.87;;
4986;SDS011;12674;51.500;7.552;2024-02-28T04:43:36;77.57;;;30.77;;
4986;SDS011;12674;51.500;7.552;2024-02-28T04:45:39;83.13;;;31.17;;
4986;SDS011;12674;51.500;7.552;2024-02-28T04:47:42;82.87;;;30.53;;
4986;SDS011;12674;51.500;7.552;2024-02-28T04:49:45;70.33;;;30.40;;
4986;SDS011;12674;51.500;7.552;2024-02-28T04:51:49;79.93;;;29.77;;
4986;SDS011;12674;51.500;7.552;2024-02-28T04:53:53;89.27;;;30.23;;
4986;SDS011;12674;51.500;7.552;2024-02-28T04:55:55;80.33;;;28.50;;
4986;SDS011;12674;51.500;7.552;2024-02-28T04:57:57;96.97;;;30.97;;
4986;SDS011;12674;51.500;7.552;2024-02-28T05:00:01;77.10;;;29.93;;
4986;SDS011;12674;51.500;7.552;2024-02-28T05:02:05;77.77;;;29.10;;
4986;SDS011;12674;51.500;7.552;2024-02-28T05:04:08;73.10;;;30.23;;
4986;SDS011;12674;51.500;7.552;2024-02-28T05:06:11;60.73;;;29.47;;
4986;SDS011;12674;51.500;7.552;2024-02-28T05:08:17;65.77;;;29.10;;
4986;SDS011;12674;51.500;7.552;2024-02-28T05:10:21;64.63;;;31.27;;
4986;SDS011;12674;51.500;7.552;2024-02-28T05:12:24;61.87;;;27.60;;
4986;SDS011;12674;51.500;7.552;2024-02-28T05:14:27;66.10;;;31.47;;
4986;SDS011;12674;51.500;7.552;2024-02-28T05:16:29;60.00;;;28.57;;
4986;SDS011;12674;51.500;7.552;2024-02-28T05:18:33;63.47;;;29.13;;
4986;SDS011;12674;51.500;7.552;2024-02-28T05:20:35;73.50;;;28.67;;
4986;SDS011;12674;51.500;7.552;2024-02-28T05:22:40;58.57;;;29.30;;
4986;SDS011;12674;51.500;7.552;2024-02-28T05:24:46;66.20;;;28.43;;
4986;SDS011;12674;51.500;7.552;2024-02-28T05:26:49;72.57;;;30.17;;
4986;SDS011;12674;51.500;7.552;2024-02-28T05:28:51;66.57;;;29.13;;
4986;SDS011;12674;51.500;7.552;2024-02-28T05:30:54;67.20;;;30.10;;
4986;SDS011;12674;51.500;7.552;2024-02-28T05:32:57;71.20;;;30.50;;
4986;SDS011;12674;51.500;7.552;2024-02-28T05:34:59;74.40;;;30.33;;
4986;SDS011;12674;51.500;7.552;2024-02-28T05:37:02;72.27;;;31.50;;
4986;SDS011;12674;51.500;7.552;2024-02-28T05:39:04;76.00;;;31.07;;
4986;SDS011;12674;51.500;7.552;2024-02-28T05:41:08;75.63;;;31.07;;
4986;SDS011;12674;51.500;7.552;2024-02-28T05:43:11;74.33;;;31.13;;
4986;SDS011;12674;51.500;7.552;2024-02-28T05:45:14;80.50;;;29.57;;
4986;SDS011;12674;51.500;7.552;2024-02-28T05:47:17;75.10;;;31.27;;
4986;SDS011;12674;51.500;7.552;2024-02-28T05:49:25;73.33;;;29.77;;
4986;SDS011;12674;51.500;7.552;2024-02-28T05:51:28;95.23;;;31.93;;
4986;SDS011;12674;51.500;7.552;2024-02-28T05:53:31;75.03;;;31.03;;
4986;SDS011;12674;51.500;7.552;2024-02-28T05:55:37;79.90;;;33.40;;
4986;SDS011;12674;51.500;7.552;2024-02-28T05:57:41;104.30;;;33.57;;
4986;SDS011;12674;51.500;7.552;2024-02-28T05:59:44;94.17;;;34.17;;
4986;SDS011;12674;51.500;7.552;2024-02-28T06:01:47;100.00;;;33.83;;
4986;SDS011;12674;51.500;7.552;2024-02-28T06:03:49;100.20;;;34.30;;
4986;SDS011;12674;51.500;7.552;2024-02-28T06:05:52;102.80;;;35.60;;
4986;SDS011;12674;51.500;7.552;2024-02-28T06:07:56;110.03;;;35.20;;
4986;SDS011;12674;51.500;7.552;2024-02-28T06:09:59;101.17;;;35.97;;
4986;SDS011;12674;51.500;7.552;2024-02-28T06:12:02;94.00;;;34.40;;
4986;SDS011;12674;51.500;7.552;2024-02-28T06:14:07;81.93;;;33.10;;
4986;SDS011;12674;51.500;7.552;2024-02-28T06:16:13;87.63;;;34.40;;
4986;SDS011;12674;51.500;7.552;2024-02-28T06:18:15;84.63;;;36.20;;
4986;SDS011;12674;51.500;7.552;2024-02-28T06:20:19;83.43;;;34.23;;
4986;SDS011;12674;51.500;7.552;2024-02-28T06:22:22;78.70;;;32.03;;
4986;SDS011;12674;51.500;7.552;2024-02-28T06:24:24;76.93;;;32.80;;
4986;SDS011;12674;51.500;7.552;2024-02-28T06:26:26;75.80;;;32.27;;
4986;SDS011;12674;51.500;7.552;2024-02-28T06:28:29;75.50;;;30.70;;
4986;SDS011;12674;51.500;7.552;2024-02-28T06:30:35;68.73;;;29.80;;
4986;SDS011;12674;51.500;7.552;2024-02-28T06:32:38;70.83;;;31.77;;
4986;SDS011;12674;51.500;7.552;2024-02-28T06:34:41;69.73;;;30.60;;
4986;SDS011;12674;51.500;7.552;2024-02-28T06:36:44;76.27;;;29.73;;
4986;SDS011;12674;51.500;7.552;2024-02-28T06:38:47;66.47;;;29.10;;
4986;SDS011;12674;51.500;7.552;2024-02-28T06:40:49;81.67;;;32.57;;
4986;SDS011;12674;51.500;7.552;2024-02-28T06:42:52;65.63;;;31.00;;
4986;SDS011;12674;51.500;7.552;2024-02-28T06:44:55;76.37;;;31.10;;
4986;SDS011;12674;51.500;7.552;2024-02-28T06:46:59;85.40;;;33.43;;
4986;SDS011;12674;51.500;7.552;2024-02-28T06:49:02;81.30;;;33.00;;
4986;SDS011;12674;51.500;7.552;2024-02-28T06:51:06;97.27;;;34.23;;
4986;SDS011;12674;51.500;7.552;2024-02-28T06:53:09;85.90;;;34.73;;
4986;SDS011;12674;51.500;7.552;2024-02-28T06:55:10;92.50;;;32.00;;
4986;SDS011;12674;51.500;7.552;2024-02-28T06:57:15;82.67;;;34.47;;
4986;SDS011;12674;51.500;7.552;2024-02-28T06:59:18;88.13;;;35.60;;
4986;SDS011;12674;51.500;7.552;2024-02-28T07:01:21;90.40;;;35.63;;
4986;SDS011;12674;51.500;7.552;2024-02-28T07:03:26;77.80;;;32.17;;
4986;SDS011;12674;51.500;7.552;2024-02-28T07:05:29;84.17;;;31.70;;
4986;SDS011;12674;51.500;7.552;2024-02-28T07:07:32;86.57;;;32.40;;
4986;SDS011;12674;51.500;7.552;2024-02-28T07:09:37;75.03;;;30.90;;
4986;SDS011;12674;51.500;7.552;2024-02-28T07:11:41;76.37;;;31.17;;
4986;SDS011;12674;51.500;7.552;2024-02-28T07:13:44;80.63;;;32.30;;
4986;SDS011;12674;51.500;7.552;2024-02-28T07:15:48;76.67;;;31.53;;
4986;SDS011;12674;51.500;7.552;2024-02-28T07:17:51;71.40;;;29.67;;
4986;SDS011;12674;51.500;7.552;2024-02-28T07:19:55;70.73;;;30.40;;
4986;SDS011;12674;51.500;7.552;2024-02-28T07:21:58;74.90;;;30.30;;
4986;SDS011;12674;51.500;7.552;2024-02-28T07:24:01;73.47;;;31.63;;
4986;SDS011;12674;51.500;7.552;2024-02-28T07:26:06;67.53;;;29.87;;
4986;SDS011;12674;51.500;7.552;2024-02-28T07:28:23;67.40;;;30.57;;
4986;SDS011;12674;51.500;7.552;2024-02-28T07:30:26;74.03;;;30.73;;
4986;SDS011;12674;51.500;7.552;2024-02-28T07:32:29;67.53;;;30.67;;
4986;SDS011;12674;51.500;7.552;2024-02-28T07:34:36;71.00;;;29.97;;
4986;SDS011;12674;51.500;7.552;2024-02-28T07:36:40;59.57;;;29.03;;
4986;SDS011;12674;51.500;7.552;2024-02-28T07:38:43;65.63;;;30.70;;
4986;SDS011;12674;51.500;7.552;2024-02-28T07:40:47;66.17;;;30.90;;
4986;SDS011;12674;51.500;7.552;2024-02-28T07:42:49;63.83;;;30.60;;
4986;SDS011;12674;51.500;7.552;2024-02-28T07:44:53;63.50;;;32.43;;
4986;SDS011;12674;51.500;7.552;2024-02-28T07:46:58;67.80;;;31.27;;
4986;SDS011;12674;51.500;7.552;2024-02-28T07:49:01;61.53;;;30.27;;
4986;SDS011;12674;51.500;7.552;2024-02-28T07:51:04;71.50;;;34.10;;
4986;SDS011;12674;51.500;7.552;2024-02-28T07:53:08;65.60;;;30.87;;
4986;SDS011;12674;51.500;7.552;2024-02-28T07:55:11;70.20;;;32.60;;
4986;SDS011;12674;51.500;7.552;2024-02-28T07:57:14;60.00;;;30.57;;
4986;SDS011;12674;51.500;7.552;2024-02-28T07:59:18;57.80;;;30.83;;
4986;SDS011;12674;51.500;7.552;2024-02-28T08:01:21;61.63;;;31.90;;
4986;SDS011;12674;51.500;7.552;2024-02-28T08:03:24;64.87;;;31.43;;
4986;SDS011;12674;51.500;7.552;2024-02-28T08:05:28;59.47;;;31.33;;
4986;SDS011;12674;51.500;7.552;2024-02-28T08:07:31;55.50;;;30.80;;
4986;SDS011;12674;51.500;7.552;2024-02-28T08:09:35;60.20;;;30.63;;
4986;SDS011;12674;51.500;7.552;2024-02-28T08:11:38;61.40;;;30.43;;
4986;SDS011;12674;51.500;7.552;2024-02-28T08:13:42;62.60;;;32.37;;
4986;SDS011;12674;51.500;7.552;2024-02-28T08:15:45;59.93;;;31.90;;
4986;SDS011;12674;51.500;7.552;2024-02-28T08:17:48;64.67;;;32.30;;
4986;SDS011;12674;51.500;7.552;2024-02-28T08:19:51;63.10;;;31.80;;
4986;SDS011;12674;51.500;7.552;2024-02-28T08:21:54;61.70;;;30.97;;
4986;SDS011;12674;51.500;7.552;2024-02-28T08:23:57;61.63;;;32.17;;
4986;SDS011;12674;51.500;7.552;2024-02-28T08:26:00;67.10;;;33.90;;
4986;SDS011;12674;51.500;7.552;2024-02-28T08:28:04;85.03;;;33.70;;
4986;SDS011;12674;51.500;7.552;2024-02-28T08:30:08;64.63;;;34.00;;
4986;SDS011;12674;51.500;7.552;2024-02-28T08:32:11;62.77;;;33.60;;
4986;SDS011;12674;51.500;7.552;2024-02-28T08:34:14;69.70;;;34.60;;
4986;SDS011;12674;51.500;7.552;2024-02-28T08:36:17;86.50;;;34.40;;
4986;SDS011;12674;51.500;7.552;2024-02-28T08:38:20;71.80;;;35.17;;
4986;SDS011;12674;51.500;7.552;2024-02-28T08:40:23;68.33;;;34.53;;
4986;SDS011;12674;51.500;7.552;2024-02-28T08:42:27;67.40;;;34.17;;
4986;SDS011;12674;51.500;7.552;2024-02-28T08:44:30;66.37;;;32.60;;
4986;SDS011;12674;51.500;7.552;2024-02-28T08:46:33;67.53;;;35.33;;
4986;SDS011;12674;51.500;7.552;2024-02-28T08:48:37;71.70;;;35.10;;
4986;SDS011;12674;51.500;7.552;2024-02-28T08:50:41;70.93;;;34.73;;
4986;SDS011;12674;51.500;7.552;2024-02-28T08:52:43;74.70;;;36.63;;
4986;SDS011;12674;51.500;7.552;2024-02-28T08:54:46;76.03;;;36.30;;
4986;SDS011;12674;51.500;7.552;2024-02-28T08:56:49;74.60;;;36.07;;
4986;SDS011;12674;51.500;7.552;2024-02-28T08:59:05;75.67;;;36.50;;
4986;SDS011;12674;51.500;7.552;2024-02-28T09:01:07;71.00;;;37.20;;
4986;SDS011;12674;51.500;7.552;2024-02-28T09:03:11;75.30;;;37.20;;
4986;SDS011;12674;51.500;7.552;2024-02-28T09:05:14;79.20;;;38.40;;
4986;SDS011;12674;51.500;7.552;2024-02-28T09:07:17;82.60;;;37.40;;
4986;SDS011;12674;51.500;7.552;2024-02-28T09:09:20;80.07;;;38.30;;
4986;SDS011;12674;51.500;7.552;2024-02-28T09:11:23;81.37;;;37.40;;
4986;SDS011;12674;51.500;7.552;2024-02-28T09:13:27;70.57;;;36.23;;
4986;SDS011;12674;51.500;7.552;2024-02-28T09:15:33;70.20;;;35.33;;
4986;SDS011;12674;51.500;7.552;2024-02-28T09:17:36;75.57;;;35.90;;
4986;SDS011;12674;51.500;7.552;2024-02-28T09:19:39;77.03;;;36.77;;
4986;SDS011;12674;51.500;7.552;2024-02-28T09:21:42;73.30;;;36.20;;
4986;SDS011;12674;51.500;7.552;2024-02-28T09:23:45;68.90;;;36.30;;
4986;SDS011;12674;51.500;7.552;2024-02-28T09:25:47;70.37;;;36.80;;
4986;SDS011;12674;51.500;7.552;2024-02-28T09:27:50;72.93;;;36.90;;
4986;SDS011;12674;51.500;7.552;2024-02-28T09:29:52;75.97;;;38.67;;
4986;SDS011;12674;51.500;7.552;2024-02-28T09:31:56;78.20;;;38.53;;
4986;SDS011;12674;51.500;7.552;2024-02-28T09:33:59;72.43;;;37.60;;
4986;SDS011;12674;51.500;7.552;2024-02-28T09:36:06;69.13;;;37.73;;
4986;SDS011;12674;51.500;7.552;2024-02-28T09:38:09;66.77;;;35.43;;
4986;SDS011;12674;51.500;7.552;2024-02-28T09:40:12;68.73;;;35.40;;
4986;SDS011;12674;51.500;7.552;2024-02-28T09:42:15;62.20;;;34.53;;
4986;SDS011;12674;51.500;7.552;2024-02-28T09:44:18;64.70;;;35.30;;
4986;SDS011;12674;51.500;7.552;2024-02-28T09:46:22;65.63;;;34.80;;
4986;SDS011;12674;51.500;7.552;2024-02-28T09:48:26;73.03;;;35.40;;
4986;SDS011;12674;51.500;7.552;2024-02-28T09:50:30;66.83;;;37.23;;
4986;SDS011;12674;51.500;7.552;2024-02-28T09:52:32;74.17;;;38.13;;
4986;SDS011;12674;51.500;7.552;2024-02-28T09:54:36;78.57;;;37.33;;
4986;SDS011;12674;51.500;7.552;2024-02-28T09:56:39;66.30;;;35.20;;
4986;SDS011;12674;51.500;7.552;2024-02-28T09:58:43;66.00;;;34.80;;
4986;SDS011;12674;51.500;7.552;2024-02-28T10:00:46;68.43;;;36.87;;
4986;SDS011;12674;51.500;7.552;2024-02-28T10:02:49;59.60;;;33.60;;
4986;SDS011;12674;51.500;7.552;2024-02-28T10:04:54;58.00;;;33.07;;
4986;SDS011;12674;51.500;7.552;2024-02-28T10:06:59;66.30;;;35.00;;
4986;SDS011;12674;51.500;7.552;2024-02-28T10:09:14;52.77;;;31.23;;
4986;SDS011;12674;51.500;7.552;2024-02-28T10:11:17;61.73;;;32.80;;
4986;SDS011;12674;51.500;7.552;2024-02-28T10:13:22;62.93;;;33.80;;
4986;SDS011;12674;51.500;7.552;2024-02-28T10:15:26;65.93;;;34.93;;
4986;SDS011;12674;51.500;7.552;2024-02-28T10:17:28;56.03;;;32.43;;
4986;SDS011;12674;51.500;7.552;2024-02-28T10:19:31;59.57;;;31.70;;
4986;SDS011;12674;51.500;7.552;2024-02-28T10:21:35;57.80;;;31.30;;
4986;SDS011;12674;51.500;7.552;2024-02-28T10:23:38;65.53;;;32.80;;
4986;SDS011;12674;51.500;7.552;2024-02-28T10:25:43;64.10;;;32.90;;
4986;SDS011;12674;51.500;7.552;2024-02-28T10:27:59;67.13;;;32.70;;
4986;SDS011;12674;51.500;7.552;2024-02-28T10:30:03;55.20;;;31.80;;
4986;SDS011;12674;51.500;7.552;2024-02-28T10:32:06;55.67;;;31.23;;
4986;SDS011;12674;51.500;7.552;2024-02-28T10:34:09;58.20;;;32.00;;
4986;SDS011;12674;51.500;7.552;2024-02-28T10:36:11;55.60;;;31.20;;
4986;SDS011;12674;51.500;7.552;2024-02-28T10:38:15;54.13;;;31.10;;
4986;SDS011;12674;51.500;7.552;2024-02-28T10:40:18;55.47;;;32.83;;
4986;SDS011;12674;51.500;7.552;2024-02-28T10:42:23;56.17;;;32.40;;
4986;SDS011;12674;51.500;7.552;2024-02-28T10:44:28;56.47;;;32.20;;
4986;SDS011;12674;51.500;7.552;2024-02-28T10:46:33;57.93;;;32.93;;
4986;SDS011;12674;51.500;7.552;2024-02-28T10:48:37;53.93;;;29.97;;
4986;SDS011;12674;51.500;7.552;2024-02-28T10:50:41;51.13;;;30.43;;
4986;SDS011;12674;51.500;7.552;2024-02-28T10:52:46;51.60;;;29.93;;
4986;SDS011;12674;51.500;7.552;2024-02-28T10:54:53;51.10;;;31.60;;
4986;SDS011;12674;51.500;7.552;2024-02-28T10:56:58;58.27;;;32.20;;
4986;SDS011;12674;51.500;7.552;2024-02-28T10:59:02;49.80;;;29.93;;
4986;SDS011;12674;51.500;7.552;2024-02-28T11:01:06;60.07;;;32.47;;
4986;SDS011;12674;51.500;7.552;2024-02-28T11:03:09;51.80;;;30.70;;
4986;SDS011;12674;51.500;7.552;2024-02-28T11:05:13;56.90;;;31.20;;
4986;SDS011;12674;51.500;7.552;2024-02-28T11:07:19;56.67;;;31.37;;
4986;SDS011;12674;51.500;7.552;2024-02-28T11:09:22;50.70;;;32.30;;
4986;SDS011;12674;51.500;7.552;2024-02-28T11:11:31;48.77;;;30.57;;
4986;SDS011;12674;51.500;7.552;2024-02-28T11:13:35;61.27;;;31.43;;
4986;SDS011;12674;51.500;7.552;2024-02-28T11:15:37;59.67;;;30.67;;
4986;SDS011;12674;51.500;7.552;2024-02-28T11:17:40;52.47;;;28.50;;
4986;SDS011;12674;51.500;7.552;2024-02-28T11:19:43;55.30;;;28.87;;
4986;SDS011;12674;51.500;7.552;2024-02-28T11:21:51;51.50;;;27.37;;
4986;SDS011;12674;51.500;7.552;2024-02-28T11:23:58;54.10;;;30.43;;
4986;SDS011;12674;51.500;7.552;2024-02-28T11:26:02;52.20;;;29.33;;
4986;SDS011;12674;51.500;7.552;2024-02-28T11:28:07;52.87;;;28.30;;
4986;SDS011;12674;51.500;7.552;2024-02-28T11:30:10;47.83;;;29.37;;
4986;SDS011;12674;51.500;7.552;2024-02-28T11:32:14;45.30;;;28.30;;
4986;SDS011;12674;51.500;7.552;2024-02-28T11:34:17;43.83;;;26.33;;
4986;SDS011;12674;51.500;7.552;2024-02-28T11:36:21;44.27;;;27.43;;
4986;SDS011;12674;51.500;7.552;2024-02-28T11:38:26;45.47;;;27.40;;
4986;SDS011;12674;51.500;7.552;2024-02-28T11:40:29;47.20;;;26.43;;
4986;SDS011;12674;51.500;7.552;2024-02-28T11:42:32;40.43;;;26.37;;
4986;SDS011;12674;51.500;7.552;2024-02-28T11:44:38;46.23;;;28.20;;
4986;SDS011;12674;51.500;7.552;2024-02-28T11:46:44;42.80;;;26.80;;
4986;SDS011;12674;51.500;7.552;2024-02-28T11:48:48;43.47;;;27.50;;
4986;SDS011;12674;51.500;7.552;2024-02-28T11:50:50;43.03;;;26.77;;
4986;SDS011;12674;51.500;7.552;2024-02-28T11:52:54;49.10;;;29.13;;
4986;SDS011;12674;51.500;7.552;2024-02-28T11:54:57;45.37;;;28.07;;
4986;SDS011;12674;51.500;7.552;2024-02-28T11:57:00;39.80;;;25.67;;
4986;SDS011;12674;51.500;7.552;2024-02-28T11:59:03;47.77;;;28.13;;
4986;SDS011;12674;51.500;7.552;2024-02-28T12:01:07;42.10;;;26.33;;
4986;SDS011;12674;51.500;7.552;2024-02-28T12:03:11;44.87;;;27.30;;
4986;SDS011;12674;51.500;7.552;2024-02-28T12:05:14;40.80;;;26.23;;
4986;SDS011;12674;51.500;7.552;2024-02-28T12:07:16;50.07;;;25.70;;
4986;SDS011;12674;51.500;7.552;2024-02-28T12:09:18;38.37;;;25.73;;